createdAt,value
2023-02-04T00:00:19.039Z,2.65
2023-02-04T00:02:46.712Z,2.64
2023-02-04T00:05:14.876Z,2.59
2023-02-04T00:07:42.369Z,2.56
2023-02-04T00:10:10.885Z,2.54
2023-02-04T00:12:39.828Z,2.51
2023-02-04T00:15:08.044Z,2.46
2023-02-04T00:17:35.621Z,2.50
2023-02-04T00:20:03.141Z,2.58
2023-02-04T00:22:30.842Z,2.54
2023-02-04T00:24:58.461Z,2.58
2023-02-04T00:27:25.973Z,2.59
2023-02-04T00:29:54.820Z,2.58
2023-02-04T00:32:22.412Z,2.58
2023-02-04T00:34:49.967Z,2.59
2023-02-04T00:37:17.539Z,2.71
2023-02-04T00:39:45.050Z,2.68
2023-02-04T00:42:12.582Z,2.67
2023-02-04T00:44:40.110Z,2.75
2023-02-04T00:47:09.247Z,2.78
2023-02-04T00:49:36.812Z,2.67
2023-02-04T00:52:04.503Z,2.68
2023-02-04T00:54:32.020Z,2.73
2023-02-04T00:56:59.649Z,2.69
2023-02-04T00:59:27.156Z,2.65
2023-02-04T01:01:54.685Z,2.71
2023-02-04T01:04:23.536Z,2.68
2023-02-04T01:06:51.037Z,2.71
2023-02-04T01:09:18.641Z,2.72
2023-02-04T01:11:46.433Z,2.77
2023-02-04T01:14:13.945Z,2.78
2023-02-04T01:16:41.632Z,2.68
2023-02-04T01:19:09.215Z,2.71
2023-02-04T01:21:39.841Z,2.72
2023-02-04T01:24:08.448Z,2.71
2023-02-04T01:26:35.988Z,2.66
2023-02-04T01:29:03.533Z,2.69
2023-02-04T01:31:32.834Z,2.72
2023-02-04T01:34:01.170Z,2.60
2023-02-04T01:36:29.040Z,2.68
2023-02-04T01:38:58.254Z,2.58
2023-02-04T01:41:26.820Z,2.59
2023-02-04T01:43:54.813Z,2.67
2023-02-04T01:46:22.429Z,2.63
2023-02-04T01:48:49.932Z,2.51
2023-02-04T01:51:28.423Z,2.59
2023-02-04T01:53:56.271Z,2.54
2023-02-04T01:56:27.140Z,2.46
2023-02-04T01:58:56.020Z,2.54
2023-02-04T02:01:37.712Z,2.50
2023-02-04T02:04:06.473Z,2.46
2023-02-04T02:06:33.997Z,2.55
2023-02-04T02:09:02.192Z,2.56
2023-02-04T02:11:31.319Z,2.46
2023-02-04T02:13:58.838Z,2.57
2023-02-04T02:16:26.417Z,2.50
2023-02-04T02:18:54.548Z,2.49
2023-02-04T02:21:27.734Z,2.51
2023-02-04T02:23:57.964Z,2.49
2023-02-04T02:26:25.733Z,2.54
2023-02-04T02:28:53.373Z,2.52
2023-02-04T02:31:22.550Z,2.46
2023-02-04T02:33:50.485Z,2.42
2023-02-04T02:36:18.254Z,2.46
2023-02-04T02:38:45.804Z,2.50
2023-02-04T02:41:14.694Z,2.49
2023-02-04T02:43:42.334Z,2.52
2023-02-04T02:46:10.268Z,2.41
2023-02-04T02:48:37.862Z,2.40
2023-02-04T02:51:05.504Z,2.43
2023-02-04T02:53:33.028Z,2.41
2023-02-04T02:56:04.510Z,2.48
2023-02-04T02:58:36.287Z,2.51
2023-02-04T03:01:06.593Z,2.45
2023-02-04T03:03:35.453Z,2.44
2023-02-04T03:06:06.548Z,2.46
2023-02-04T03:08:34.296Z,2.44
2023-02-04T03:11:02.021Z,2.45
2023-02-04T03:13:29.861Z,2.49
2023-02-04T03:15:58.889Z,2.46
2023-02-04T03:18:27.107Z,2.43
2023-02-04T03:20:54.679Z,2.43
2023-02-04T03:23:22.265Z,2.50
2023-02-04T03:25:49.812Z,2.44
2023-02-04T03:28:17.463Z,2.48
2023-02-04T03:30:53.726Z,2.41
2023-02-04T03:33:23.222Z,2.37
2023-02-04T03:35:51.434Z,2.43
2023-02-04T03:38:20.012Z,2.45
2023-02-04T03:40:47.687Z,2.39
2023-02-04T03:43:15.286Z,2.39
2023-02-04T03:45:45.700Z,2.33
2023-02-04T03:48:13.629Z,2.33
2023-02-04T03:50:42.619Z,2.31
2023-02-04T03:53:10.175Z,2.27
2023-02-04T03:55:37.735Z,2.23
2023-02-04T03:58:05.891Z,2.13
2023-02-04T04:00:34.591Z,2.14
2023-02-04T04:03:02.197Z,2.08
2023-02-04T04:05:29.780Z,2.16
2023-02-04T04:07:59.156Z,2.18
2023-02-04T04:10:26.856Z,2.20
2023-02-04T04:12:54.353Z,2.25
2023-02-04T04:15:21.922Z,2.19
2023-02-04T04:17:49.800Z,2.18
2023-02-04T04:20:17.639Z,2.22
2023-02-04T04:22:45.662Z,2.19
2023-02-04T04:25:14.581Z,2.14
2023-02-04T04:27:42.128Z,2.11
2023-02-04T04:30:10.775Z,2.17
2023-02-04T04:32:38.619Z,2.16
2023-02-04T04:35:06.562Z,2.14
2023-02-04T04:37:35.175Z,2.11
2023-02-04T04:40:02.886Z,2.17
2023-02-04T04:42:31.773Z,2.10
2023-02-04T04:44:59.266Z,2.09
2023-02-04T04:47:27.242Z,1.99
2023-02-04T04:49:54.785Z,2.05
2023-02-04T04:52:22.306Z,2.03
2023-02-04T04:54:49.788Z,2.11
2023-02-04T04:57:17.301Z,2.11
2023-02-04T04:59:46.187Z,2.09
2023-02-04T05:02:13.689Z,1.90
2023-02-04T05:04:41.216Z,1.36
2023-02-04T05:07:08.813Z,0.77
2023-02-04T05:09:36.328Z,0.15
2023-02-04T05:12:03.968Z,-0.10
2023-02-04T05:14:31.533Z,-0.26
2023-02-04T05:17:00.408Z,-0.16
2023-02-04T05:19:27.938Z,-0.11
2023-02-04T05:21:55.460Z,-0.15
2023-02-04T05:24:23.230Z,-0.14
2023-02-04T05:26:50.764Z,-0.16
2023-02-04T05:29:18.321Z,-0.16
2023-02-04T05:31:45.971Z,-0.14
2023-02-04T05:34:14.875Z,-0.18
2023-02-04T05:36:42.397Z,-0.16
2023-02-04T05:39:10.095Z,-0.15
2023-02-04T05:41:37.590Z,-0.10
2023-02-04T05:44:05.747Z,-0.14
2023-02-04T05:46:34.247Z,-0.06
2023-02-04T05:49:02.083Z,-0.04
2023-02-04T05:51:30.905Z,-0.04
2023-02-04T05:53:58.433Z,-0.02
2023-02-04T05:56:26.256Z,-0.01
2023-02-04T05:58:53.800Z,-0.02
2023-02-04T06:01:21.309Z,0.01
2023-02-04T06:03:48.941Z,0.02
2023-02-04T06:06:16.478Z,0.01
2023-02-04T06:08:45.317Z,-0.01
2023-02-04T06:11:13.308Z,-0.02
2023-02-04T06:13:40.827Z,0.04
2023-02-04T06:16:09.237Z,0.04
2023-02-04T06:18:36.796Z,0.06
2023-02-04T06:21:08.938Z,0.05
2023-02-04T06:23:36.456Z,0.02
2023-02-04T06:26:05.584Z,-0.02
2023-02-04T06:28:33.182Z,-0.05
2023-02-04T06:31:00.812Z,-0.05
2023-02-04T06:33:28.444Z,-0.07
2023-02-04T06:35:56.044Z,-0.12
2023-02-04T06:38:23.544Z,-0.21
2023-02-04T06:40:53.701Z,-0.26
2023-02-04T06:43:23.968Z,-0.39
2023-02-04T06:45:52.092Z,-0.39
2023-02-04T06:48:19.950Z,-0.42
2023-02-04T06:50:47.439Z,-0.33
2023-02-04T06:53:14.966Z,-0.35
2023-02-04T06:55:42.498Z,-0.37
2023-02-04T06:58:10.065Z,-0.32
2023-02-04T07:00:38.903Z,-0.37
2023-02-04T07:03:07.426Z,-0.29
2023-02-04T07:05:34.997Z,-0.25
2023-02-04T07:08:02.692Z,-0.23
2023-02-04T07:10:30.505Z,-0.25
2023-02-04T07:12:58.334Z,-0.25
2023-02-04T07:15:25.893Z,-0.24
2023-02-04T07:17:54.901Z,-0.22
2023-02-04T07:20:22.420Z,-0.18
2023-02-04T07:22:49.947Z,-0.07
2023-02-04T07:25:17.956Z,-0.01
2023-02-04T07:27:45.812Z,-0.03
2023-02-04T07:30:14.558Z,0.12
2023-02-04T07:32:42.069Z,0.13
2023-02-04T07:35:11.771Z,0.09
2023-02-04T07:37:39.452Z,-0.05
2023-02-04T07:40:08.158Z,-0.15
2023-02-04T07:42:35.766Z,-0.20
2023-02-04T07:45:03.278Z,-0.25
2023-02-04T07:47:30.813Z,-0.30
2023-02-04T07:49:58.319Z,-0.26
2023-02-04T07:52:27.497Z,-0.21
2023-02-04T07:54:55.026Z,-0.15
2023-02-04T07:57:22.542Z,-0.05
2023-02-04T07:59:50.085Z,0.12
2023-02-04T08:02:17.680Z,-0.06
2023-02-04T08:04:45.221Z,-0.21
2023-02-04T08:07:12.739Z,-0.19
2023-02-04T08:09:41.571Z,-0.16
2023-02-04T08:12:09.306Z,-0.06
2023-02-04T08:14:37.388Z,0.01
2023-02-04T08:17:04.913Z,0.00
2023-02-04T08:19:32.395Z,0.03
2023-02-04T08:21:59.893Z,0.02
2023-02-04T08:24:27.378Z,0.01
2023-02-04T08:26:56.238Z,0.03
2023-02-04T08:29:25.615Z,0.14
2023-02-04T08:31:53.163Z,0.25
2023-02-04T08:34:20.743Z,0.28
2023-02-04T08:36:48.371Z,0.28
2023-02-04T08:39:15.962Z,0.38
2023-02-04T08:41:43.760Z,0.47
2023-02-04T08:44:12.724Z,0.57
2023-02-04T08:46:40.312Z,0.67
2023-02-04T08:49:07.893Z,0.70
2023-02-04T08:51:35.432Z,0.76
2023-02-04T08:54:02.934Z,0.75
2023-02-04T08:56:31.396Z,0.82
2023-02-04T08:58:58.945Z,0.98
2023-02-04T09:01:27.814Z,0.97
2023-02-04T09:03:55.293Z,0.93
2023-02-04T09:06:22.781Z,1.04
2023-02-04T09:08:50.301Z,1.20
2023-02-04T09:11:17.791Z,1.23
2023-02-04T09:13:45.527Z,1.52
2023-02-04T09:16:13.113Z,1.49
2023-02-04T09:18:41.961Z,1.68
2023-02-04T09:21:09.505Z,1.73
2023-02-04T09:23:37.031Z,1.84
2023-02-04T09:26:06.286Z,2.13
2023-02-04T09:28:33.925Z,2.28
2023-02-04T09:31:03.062Z,2.30
2023-02-04T09:33:31.954Z,2.47
2023-02-04T09:36:00.820Z,2.67
2023-02-04T09:38:28.374Z,2.83
2023-02-04T09:40:59.313Z,2.66
2023-02-04T09:43:29.569Z,2.49
2023-02-04T09:45:57.608Z,2.31
2023-02-04T09:48:25.756Z,2.05
2023-02-04T09:50:54.087Z,1.99
2023-02-04T09:53:24.497Z,1.73
2023-02-04T09:55:52.869Z,1.73
2023-02-04T09:58:22.207Z,1.67
2023-02-04T10:00:54.120Z,1.79
2023-02-04T10:03:22.045Z,1.83
2023-02-04T10:05:50.959Z,1.98
2023-02-04T10:08:20.329Z,1.97
2023-02-04T10:10:50.466Z,2.46
2023-02-04T10:13:19.644Z,2.70
2023-02-04T10:15:47.803Z,2.70
2023-02-04T10:18:21.423Z,2.71
2023-02-04T10:20:48.913Z,2.82
2023-02-04T10:23:16.615Z,3.01
2023-02-04T10:25:44.166Z,2.98
2023-02-04T10:28:13.326Z,2.40
2023-02-04T10:30:42.076Z,2.06
2023-02-04T10:33:14.476Z,2.16
2023-02-04T10:35:46.588Z,2.21
2023-02-04T10:38:14.502Z,2.09
2023-02-04T10:40:42.776Z,2.33
2023-02-04T10:43:11.902Z,2.58
2023-02-04T10:45:40.790Z,2.65
2023-02-04T10:48:08.935Z,3.02
2023-02-04T10:50:36.768Z,2.62
2023-02-04T10:53:22.077Z,2.92
2023-02-04T10:55:51.278Z,2.67
2023-02-04T10:58:22.029Z,2.70
2023-02-04T11:00:51.021Z,2.90
2023-02-04T11:03:22.696Z,2.60
2023-02-04T11:05:50.968Z,2.43
2023-02-04T11:08:22.099Z,2.31
2023-02-04T11:10:52.049Z,2.29
2023-02-04T11:13:25.110Z,2.26
2023-02-04T11:16:10.809Z,2.20
2023-02-04T11:18:49.535Z,2.19
2023-02-04T11:21:24.852Z,2.09
2023-02-04T11:23:52.710Z,2.20
2023-02-04T11:26:33.267Z,2.26
2023-02-04T11:29:25.562Z,2.34
2023-02-04T11:32:03.079Z,2.54
2023-02-04T11:34:46.668Z,2.66
2023-02-04T11:37:35.693Z,2.95
2023-02-04T11:40:13.565Z,2.85
2023-02-04T11:42:42.513Z,3.32
2023-02-04T11:45:16.047Z,3.90
2023-02-04T11:47:45.462Z,3.88
2023-02-04T11:50:17.184Z,3.86
2023-02-04T11:52:44.772Z,3.59
2023-02-04T11:55:13.392Z,3.39
2023-02-04T11:57:41.418Z,3.03
2023-02-04T12:00:14.892Z,2.72
2023-02-04T12:02:45.581Z,2.51
2023-02-04T12:05:14.987Z,2.33
2023-02-04T12:07:42.821Z,2.14
2023-02-04T12:10:25.440Z,2.04
2023-02-04T12:12:57.727Z,1.84
2023-02-04T12:15:26.450Z,1.90
2023-02-04T12:18:07.262Z,2.21
2023-02-04T12:20:35.118Z,2.37
2023-02-04T12:23:02.938Z,2.71
2023-02-04T12:25:30.848Z,2.83
2023-02-04T12:27:59.156Z,3.00
2023-02-04T12:30:28.124Z,3.23
2023-02-04T12:32:55.679Z,3.33
2023-02-04T12:35:24.572Z,3.59
2023-02-04T12:37:52.092Z,3.65
2023-02-04T12:40:21.238Z,3.57
2023-02-04T12:42:48.938Z,3.42
2023-02-04T12:45:17.800Z,3.17
2023-02-04T12:47:45.685Z,2.51
2023-02-04T12:50:14.578Z,2.15
2023-02-04T12:52:43.737Z,1.87
2023-02-04T12:55:11.302Z,1.77
2023-02-04T12:57:38.800Z,2.18
2023-02-04T13:00:07.471Z,2.42
2023-02-04T13:02:34.973Z,2.59
2023-02-04T13:05:02.471Z,2.84
2023-02-04T13:07:30.143Z,2.99
2023-02-04T13:09:58.998Z,3.03
2023-02-04T13:12:26.885Z,3.30
2023-02-04T13:14:54.658Z,3.53
2023-02-04T13:17:22.269Z,3.68
2023-02-04T13:19:49.760Z,3.76
2023-02-04T13:22:17.300Z,3.75
2023-02-04T13:24:44.808Z,3.95
2023-02-04T13:27:15.227Z,3.80
2023-02-04T13:29:42.729Z,3.71
2023-02-04T13:32:10.492Z,3.84
2023-02-04T13:34:38.124Z,3.90
2023-02-04T13:37:05.622Z,4.26
2023-02-04T13:39:33.144Z,4.07
2023-02-04T13:42:00.684Z,4.05
2023-02-04T13:44:29.574Z,3.57
2023-02-04T13:46:57.085Z,3.51
2023-02-04T13:49:24.624Z,3.53
2023-02-04T13:51:52.373Z,3.54
2023-02-04T13:54:19.880Z,3.56
2023-02-04T13:56:47.461Z,3.71
2023-02-04T13:59:14.986Z,3.57
2023-02-04T14:01:43.804Z,3.42
2023-02-04T14:04:20.408Z,3.25
2023-02-04T14:06:48.006Z,3.22
2023-02-04T14:09:15.825Z,2.97
2023-02-04T14:11:43.353Z,3.02
2023-02-04T14:14:11.003Z,3.06
2023-02-04T14:16:38.516Z,3.15
2023-02-04T14:19:07.597Z,3.46
2023-02-04T14:21:35.151Z,3.39
2023-02-04T14:24:02.682Z,3.31
2023-02-04T14:26:30.183Z,3.37
2023-02-04T14:28:57.704Z,3.35
2023-02-04T14:31:25.265Z,3.13
2023-02-04T14:33:52.791Z,2.96
2023-02-04T14:36:24.081Z,2.79
2023-02-04T14:38:51.607Z,2.66
2023-02-04T14:41:21.358Z,2.53
2023-02-04T14:43:48.910Z,2.26
2023-02-04T14:46:16.472Z,2.08
2023-02-04T14:48:45.427Z,1.98
2023-02-04T14:51:13.566Z,1.91
2023-02-04T14:53:48.097Z,1.92
2023-02-04T14:56:16.026Z,1.97
2023-02-04T14:58:43.697Z,2.14
2023-02-04T15:01:11.374Z,2.29
2023-02-04T15:03:38.882Z,2.38
2023-02-04T15:06:06.966Z,2.35
2023-02-04T15:08:34.482Z,2.21
2023-02-04T15:11:03.322Z,2.11
2023-02-04T15:13:30.843Z,2.08
2023-02-04T15:15:58.340Z,1.95
2023-02-04T15:18:26.047Z,1.82
2023-02-04T15:20:53.560Z,1.86
2023-02-04T15:23:21.279Z,1.80
2023-02-04T15:25:48.765Z,1.72
2023-02-04T15:28:17.608Z,1.74
2023-02-04T15:30:45.277Z,1.72
2023-02-04T15:33:13.912Z,1.71
2023-02-04T15:35:41.425Z,1.67
2023-02-04T15:38:09.005Z,1.61
2023-02-04T15:40:36.746Z,1.48
2023-02-04T15:43:04.276Z,1.43
2023-02-04T15:45:33.123Z,1.38
2023-02-04T15:48:00.659Z,1.34
2023-02-04T15:50:29.386Z,1.25
2023-02-04T15:52:57.434Z,1.10
2023-02-04T15:55:24.996Z,1.03
2023-02-04T15:57:52.483Z,0.96
2023-02-04T16:00:20.613Z,0.92
2023-02-04T16:02:49.718Z,0.91
2023-02-04T16:05:17.500Z,0.93
2023-02-04T16:07:45.022Z,0.95
2023-02-04T16:10:12.674Z,0.98
2023-02-04T16:12:40.664Z,1.00
2023-02-04T16:15:09.065Z,0.96
2023-02-04T16:17:36.671Z,0.94
2023-02-04T16:20:06.789Z,0.92
2023-02-04T16:22:34.472Z,0.88
2023-02-04T16:25:02.189Z,0.85
2023-02-04T16:27:31.743Z,0.84
2023-02-04T16:29:59.223Z,0.80
2023-02-04T16:32:27.043Z,0.72
2023-02-04T16:34:56.735Z,0.66
2023-02-04T16:37:25.630Z,0.64
2023-02-04T16:39:53.352Z,0.63
2023-02-04T16:42:20.966Z,0.54
2023-02-04T16:44:48.504Z,0.51
2023-02-04T16:47:16.091Z,0.46
2023-02-04T16:49:44.805Z,0.38
2023-02-04T16:52:12.482Z,0.25
2023-02-04T16:54:41.588Z,0.16
2023-02-04T16:57:09.086Z,0.16
2023-02-04T16:59:38.333Z,0.04
2023-02-04T17:02:05.979Z,-0.01
2023-02-04T17:04:34.627Z,-0.11
2023-02-04T17:07:02.176Z,-0.21
2023-02-04T17:09:30.010Z,-0.33
2023-02-04T17:11:58.927Z,-0.24
2023-02-04T17:14:26.564Z,-0.25
2023-02-04T17:16:54.091Z,-0.25
2023-02-04T17:19:21.761Z,-0.20
2023-02-04T17:21:49.629Z,-0.22
2023-02-04T17:24:17.220Z,-0.20
2023-02-04T17:26:45.189Z,-0.20
2023-02-04T17:29:17.203Z,-0.17
2023-02-04T17:31:44.946Z,-0.16
2023-02-04T17:34:12.514Z,-0.20
2023-02-04T17:36:40.121Z,-0.25
2023-02-04T17:39:08.405Z,-0.35
2023-02-04T17:41:36.408Z,-0.39
2023-02-04T17:44:04.191Z,-0.34
2023-02-04T17:46:34.337Z,-0.35
2023-02-04T17:49:01.937Z,-0.39
2023-02-04T17:51:29.550Z,-0.42
2023-02-04T17:53:57.256Z,-0.42
2023-02-04T17:56:26.036Z,-0.44
2023-02-04T17:58:55.589Z,-0.38
2023-02-04T18:01:25.250Z,-0.39
2023-02-04T18:03:54.583Z,-0.43
2023-02-04T18:06:23.841Z,-0.29
2023-02-04T18:08:52.713Z,-0.33
2023-02-04T18:11:21.834Z,-0.41
2023-02-04T18:13:49.705Z,-0.39
2023-02-04T18:16:24.215Z,-0.43
2023-02-04T18:18:54.744Z,-0.45
2023-02-04T18:21:24.960Z,-0.43
2023-02-04T18:24:01.430Z,-0.44
2023-02-04T18:26:29.407Z,-0.47
2023-02-04T18:28:57.045Z,-0.52
2023-02-04T18:31:35.014Z,-0.54
2023-02-04T18:34:12.910Z,-0.59
2023-02-04T18:36:40.585Z,-0.65
2023-02-04T18:39:16.354Z,-0.69
2023-02-04T18:41:45.048Z,-0.77
2023-02-04T18:44:23.336Z,-0.85
2023-02-04T18:46:50.994Z,-0.99
2023-02-04T18:49:26.655Z,-1.13
2023-02-04T18:51:54.384Z,-1.28
2023-02-04T18:54:36.431Z,-1.44
2023-02-04T18:57:28.623Z,-1.62
2023-02-04T19:00:25.340Z,-1.72
2023-02-04T19:02:55.339Z,-1.84
2023-02-04T19:05:29.884Z,-1.95
2023-02-04T19:08:18.569Z,-2.07
2023-02-04T19:10:46.188Z,-2.22
2023-02-04T19:13:19.277Z,-2.31
2023-02-04T19:15:55.107Z,-2.32
2023-02-04T19:18:25.516Z,-2.33
2023-02-04T19:20:54.507Z,-2.41
2023-02-04T19:23:23.741Z,-2.48
2023-02-04T19:25:52.589Z,-2.59
2023-02-04T19:28:28.991Z,-2.62
2023-02-04T19:31:00.584Z,-2.77
2023-02-04T19:33:29.980Z,-2.86
2023-02-04T19:35:59.633Z,-2.88
2023-02-04T19:38:36.896Z,-2.91
2023-02-04T19:41:20.880Z,-2.93
2023-02-04T19:43:49.492Z,-2.89
2023-02-04T19:46:21.927Z,-2.96
2023-02-04T19:48:49.453Z,-2.96
2023-02-04T19:51:26.620Z,-3.02
2023-02-04T19:53:59.104Z,-3.09
2023-02-04T19:56:33.629Z,-3.16
2023-02-04T19:59:15.666Z,-3.16
2023-02-04T20:01:43.152Z,-3.26
2023-02-04T20:04:14.818Z,-3.29
2023-02-04T20:06:45.438Z,-3.37
2023-02-04T20:09:16.857Z,-3.42
2023-02-04T20:11:54.529Z,-3.42
2023-02-04T20:14:28.216Z,-3.51
2023-02-04T20:16:58.424Z,-3.49
2023-02-04T20:19:29.229Z,-3.65
2023-02-04T20:22:12.169Z,-3.65
2023-02-04T20:24:42.314Z,-3.69
2023-02-04T20:27:17.828Z,-3.69
2023-02-04T20:29:45.361Z,-3.76
2023-02-04T20:32:18.572Z,-3.81
2023-02-04T20:34:46.145Z,-3.83
2023-02-04T20:37:22.103Z,-3.88
2023-02-04T20:39:49.717Z,-3.92
2023-02-04T20:42:36.064Z,-3.96
2023-02-04T20:45:21.794Z,-3.96
2023-02-04T20:47:50.131Z,-4.00
2023-02-04T20:50:38.987Z,-3.95
2023-02-04T20:53:31.067Z,-3.94
2023-02-04T20:56:03.702Z,-4.04
2023-02-04T20:58:35.699Z,-4.10
2023-02-04T21:01:03.273Z,-4.01
2023-02-04T21:03:35.480Z,-4.15
2023-02-04T21:06:04.239Z,-4.18
2023-02-04T21:08:41.747Z,-4.16
2023-02-04T21:11:09.773Z,-4.14
2023-02-04T21:13:37.640Z,-4.22
2023-02-04T21:16:05.675Z,-4.23
2023-02-04T21:18:34.889Z,-4.21
2023-02-04T21:21:03.754Z,-4.18
2023-02-04T21:23:31.499Z,-4.12
2023-02-04T21:26:01.665Z,-4.23
2023-02-04T21:28:29.622Z,-4.16
2023-02-04T21:30:57.221Z,-4.15
2023-02-04T21:33:24.814Z,-4.14
2023-02-04T21:35:52.364Z,-4.16
2023-02-04T21:38:19.882Z,-4.21
2023-02-04T21:40:47.451Z,-4.19
2023-02-04T21:43:16.301Z,-4.21
2023-02-04T21:45:43.886Z,-4.23
2023-02-04T21:48:11.421Z,-4.30
2023-02-04T21:50:39.430Z,-4.29
2023-02-04T21:53:07.526Z,-4.28
2023-02-04T21:55:35.819Z,-4.31
2023-02-04T21:58:03.672Z,-4.32
2023-02-04T22:00:32.571Z,-4.15
2023-02-04T22:03:00.165Z,-4.21
2023-02-04T22:05:27.859Z,-4.13
2023-02-04T22:07:55.381Z,-4.10
2023-02-04T22:10:25.201Z,-4.17
2023-02-04T22:12:52.844Z,-4.18
2023-02-04T22:15:22.504Z,-4.19
2023-02-04T22:17:52.706Z,-4.23
2023-02-04T22:20:21.325Z,-4.26
2023-02-04T22:22:49.572Z,-4.28
2023-02-04T22:25:20.023Z,-4.40
2023-02-04T22:27:48.072Z,-4.39
2023-02-04T22:30:16.690Z,-4.45
2023-02-04T22:32:44.254Z,-4.53
2023-02-04T22:35:13.224Z,-4.53
2023-02-04T22:37:41.641Z,-4.55
2023-02-04T22:40:11.802Z,-4.52
2023-02-04T22:42:39.405Z,-4.57
2023-02-04T22:45:08.017Z,-4.56
2023-02-04T22:47:35.541Z,-4.55
2023-02-04T22:50:03.102Z,-4.61
2023-02-04T22:52:32.015Z,-4.60
2023-02-04T22:54:59.696Z,-4.72
2023-02-04T22:57:27.199Z,-4.62
2023-02-04T22:59:54.723Z,-4.67
2023-02-04T23:02:22.248Z,-4.69
2023-02-04T23:04:49.757Z,-4.65
2023-02-04T23:07:17.315Z,-4.68
2023-02-04T23:09:46.181Z,-4.60
2023-02-04T23:12:13.744Z,-4.67
2023-02-04T23:14:42.493Z,-4.65
2023-02-04T23:17:10.229Z,-4.67
2023-02-04T23:19:38.026Z,-4.65
2023-02-04T23:22:06.192Z,-4.62
2023-02-04T23:24:34.461Z,-4.65
2023-02-04T23:27:04.210Z,-4.71
2023-02-04T23:29:35.114Z,-4.67
2023-02-04T23:32:03.127Z,-4.73
2023-02-04T23:34:30.741Z,-4.76
2023-02-04T23:36:58.360Z,-4.78
2023-02-04T23:39:25.887Z,-4.74
2023-02-04T23:41:53.433Z,-4.78
2023-02-04T23:44:22.265Z,-4.82
2023-02-04T23:46:49.857Z,-4.81
2023-02-04T23:49:17.558Z,-4.91
2023-02-04T23:51:45.986Z,-4.88
2023-02-04T23:54:13.545Z,-4.90
2023-02-04T23:56:41.143Z,-4.86
2023-02-04T23:59:09.010Z,-4.86
